Wilson Gaeta — 8PTS — position and weather

sailwx.info

Track history (hours):
 
Tides and Currents Weather Stations Pressure Air Temp Water Temp Dewpoint Dewpoint Depression Visibility Wind Speed Wind Dir Waves Ship Positions

Wilson Gaeta

Last reported at 2015-Jan-26 18:12 UTC. Time now 2015-Jan-31 10:11 UTC.
Position N 51°52' E 002°20'.

Length 88 m; draft 3.8 m.

Type: Cargo ship. MMSI: 314237000.

Date/timePositionNaut miles runAvg speedWind from/ knotsBaromVisibWave heightAir tempDewpointWater temp
2015-Jan-26 18:12N 51°52' E 002°20'811.5
2015-Jan-26 17:32N 51°45' E 002°13'1110.9
2015-Jan-26 16:33N 51°36' E 002°03'9 8.9
2015-Jan-26 15:33N 51°28' E 001°59'8 8.0
2015-Jan-26 14:33N 51°22' E 002°07'9 9.3
2015-Jan-26 13:33N 51°13' E 002°02'9 9.0
2015-Jan-26 12:34N 51°08' E 001°49'8 8.0
2015-Jan-26 11:33N 51°03' E 001°40'8 8.1
2015-Jan-26 10:33N 50°56' E 001°32'  
2015-Jan-17 11:33N 50°37' E 000°33'9 8.9
2015-Jan-17 10:31N 50°43' E 000°45'18 8.1
2015-Jan-17 08:17N 50°54' E 001°07'6 7.9
2015-Jan-17 07:33N 50°58' E 001°15'8 8.5
2015-Jan-17 06:34N 51°03' E 001°25'1010.0
2015-Jan-17 05:33N 51°09' E 001°38'1110.7
2015-Jan-17 04:33N 51°18' E 001°48'1010.4
2015-Jan-17 03:33N 51°27' E 001°55'10 9.6
2015-Jan-17 02:33N 51°35' E 002°02'9 8.8
2015-Jan-17 01:33N 51°43' E 002°10'  
Track history (hours):
 
Tides and Currents Weather Stations Pressure Air Temp Water Temp Dewpoint Dewpoint Depression Visibility Wind Speed Wind Dir Waves Ship Positions

Wilson Gaeta

Last reported at 2015-Jan-26 18:12 UTC. Time now 2015-Jan-31 10:11 UTC.
Position N 51°52' E 002°20'.

Length 88 m; draft 3.8 m.

Type: Cargo ship. MMSI: 314237000.

Date/timePositionNaut miles runAvg speedWind from/ knotsBaromVisibWave heightAir tempDewpointWater temp
2015-Jan-26 18:12N 51°52' E 002°20'811.5
2015-Jan-26 17:32N 51°45' E 002°13'1110.9
2015-Jan-26 16:33N 51°36' E 002°03'9 8.9
2015-Jan-26 15:33N 51°28' E 001°59'8 8.0
2015-Jan-26 14:33N 51°22' E 002°07'9 9.3
2015-Jan-26 13:33N 51°13' E 002°02'9 9.0
2015-Jan-26 12:34N 51°08' E 001°49'8 8.0
2015-Jan-26 11:33N 51°03' E 001°40'8 8.1
2015-Jan-26 10:33N 50°56' E 001°32'  
2015-Jan-17 11:33N 50°37' E 000°33'9 8.9
2015-Jan-17 10:31N 50°43' E 000°45'18 8.1
2015-Jan-17 08:17N 50°54' E 001°07'6 7.9
2015-Jan-17 07:33N 50°58' E 001°15'8 8.5
2015-Jan-17 06:34N 51°03' E 001°25'1010.0
2015-Jan-17 05:33N 51°09' E 001°38'1110.7
2015-Jan-17 04:33N 51°18' E 001°48'1010.4
2015-Jan-17 03:33N 51°27' E 001°55'10 9.6
2015-Jan-17 02:33N 51°35' E 002°02'9 8.8
2015-Jan-17 01:33N 51°43' E 002°10'  

Dump ship's entire track history